• Join FlightAware (Why Join?)
  • Login
  • US Flag 
06:36AM EDT


 

Airport Tracker/Info


-or-


 

Live Flight TrackerFlight Track Log ✈ PDT4373 ✈ 15-Oct-2013 ✈ KBGM - KPHL

Flight Track Log - Related Links

Times and Time Zones

All times are in EDT time to prevent confusion due to time zone crossing. See the PDT4373 flight status page for this flight to view local times or setup timezone preferences in your user account.

Time Position Orientation Groundspeed Altitude Reporting Facility
EDT Latitude Longitude Course Direction KTS MPH feet Rate Location/Type
11:34AM 42.0427 -75.9254 180° South  Level Estimated
11:35AM 41.9859 -75.9269 181° South  Level FlightAware Approximate
11:36AM 41.9291 -75.9285 181° South  Level FlightAware Approximate
11:37AM 41.8722 -75.9300 181° South  Level FlightAware Approximate
11:38AM 41.8173 -75.9105 154° Southeast  Level Estimated
11:39AM 41.7623 -75.8910 160° South  Level Estimated
11:40AM 41.7074 -75.8716 159° South  Level Estimated
11:41AM 41.6523 -75.8525 166° South  Level FlightAware Approximate
11:42AM 41.5974 -75.8331 153° Southeast  Level Estimated
11:43AM 41.5424 -75.8137 161° South  Level Estimated
11:44AM 41.4888 -75.7883 160° South  Level FlightAware Approximate
11:45AM 41.4353 -75.7629 160° South  Level FlightAware Approximate
11:46AM 41.3817 -75.7376 160° South  Level FlightAware Approximate
11:47AM 41.3266 -75.7190 162° South  Level Estimated
11:48AM 41.2730 -75.6939 161° South  Level FlightAware Approximate
11:49AM 41.2193 -75.6688 161° South  Level FlightAware Approximate
11:50AM 41.1657 -75.6438 161° South  Level FlightAware Approximate
11:51AM 41.1121 -75.6188 161° South  Level FlightAware Approximate
11:52AM 41.0567 -75.6016 163° South  Level Estimated
11:53AM 41.0029 -75.5775 161° South  Level FlightAware Approximate
11:54AM 40.9490 -75.5534 161° South  Level FlightAware Approximate
11:55AM 40.8951 -75.5294 161° South  Level FlightAware Approximate
11:56AM 40.8413 -75.5054 161° South  Level FlightAware Approximate
11:57AM 40.7856 -75.4900 190° South  Level Estimated
11:58AM 40.7288 -75.4920 182° South  Level FlightAware Approximate
11:59AM 40.6720 -75.4940 182° South  Level FlightAware Approximate
12:00PM 40.6152 -75.4960 182° South  Level FlightAware Approximate
12:01PM 40.5602 -75.4769 187° South  Level Estimated
12:01PM 40.6000 -75.4833 143° Southeast 256 295 5,600  Level Philadelphia TRACON
12:01PM 40.5500 -75.5000 194° South 255 293 5,100 -420 Descending Philadelphia TRACON
12:02PM 40.5043 -75.4908 191° South  Level FlightAware Approximate
12:02PM 40.5000 -75.5167 194° South 246 283 5,000  Level Philadelphia TRACON
12:03PM 40.4500 -75.4691 190° South  Level Estimated
12:03PM 40.4333 -75.5167 180° South 235 270 5,000  Level Philadelphia TRACON
12:04PM 40.3956 -75.4911 197° South  Level FlightAware Approximate
12:04PM 40.3667 -75.5333 191° South 233 268 5,000  Level Philadelphia TRACON
12:05PM 40.3423 -75.4654 180° South  Level Estimated
12:05PM 40.3167 -75.5167 166° South 246 283 4,100  Level Philadelphia TRACON
12:06PM 40.2889 -75.4398 143° Southeast  Level Estimated
12:06PM 40.2500 -75.4833 159° South 234 269 4,100  Level Philadelphia TRACON
12:07PM 40.1833 -75.4500 159° South 225 259 4,000 -60 Descending Philadelphia TRACON
12:08PM 40.1333 -75.4167 153° Southeast 225 259 4,000  Level Philadelphia TRACON
12:09PM 40.0667 -75.4000 169° South 225 259 4,100  Climbing Philadelphia TRACON
12:10PM 40.0000 -75.3833 169° South 220 253 4,100  Level Philadelphia TRACON
12:11PM 39.9500 -75.3667 166° South 198 228 4,100  Level Philadelphia TRACON
12:12PM 39.9000 -75.3500 166° South 207 238 4,100  Level Philadelphia TRACON
12:13PM 39.8333 -75.3167 159° South 208 239 4,100  Level Philadelphia TRACON
12:14PM 39.7833 -75.3167 180° South 205 236 4,100 -420 Level Philadelphia TRACON
12:15PM 39.7333 -75.2667 142° Southeast 206 237 3,400 -900 Descending Philadelphia TRACON
12:16PM 39.7333 -75.2000 90° East 175 201 2,300 -720 Descending Philadelphia TRACON
12:17PM 39.7667 -75.1833 21° North 173 199 2,000 -480 Descending Philadelphia TRACON
12:18PM 39.8167 -75.2000 346° North 155 178 1,400 -720 Descending Philadelphia TRACON
12:19PM 39.8500 -75.2167 339° North 122 140 600 -840 Descending Philadelphia TRACON